createdAt,value
2023-01-20T00:03:01.792Z,72.84
2023-01-20T00:06:04.930Z,73.42
2023-01-20T00:09:06.623Z,73.16
2023-01-20T00:12:09.208Z,72.85
2023-01-20T00:15:12.359Z,72.24
2023-01-20T00:18:15.543Z,72.29
2023-01-20T00:21:17.308Z,71.80
2023-01-20T00:24:19.949Z,72.35
2023-01-20T00:27:21.363Z,73.34
2023-01-20T00:30:24.678Z,73.97
2023-01-20T00:33:26.236Z,72.91
2023-01-20T00:36:32.483Z,73.27
2023-01-20T00:39:34.012Z,73.29
2023-01-20T00:42:37.093Z,73.75
2023-01-20T00:45:40.612Z,73.66
2023-01-20T00:48:43.392Z,73.50
2023-01-20T00:51:46.133Z,72.90
2023-01-20T00:54:47.730Z,72.47
2023-01-20T00:57:50.464Z,73.21
2023-01-20T01:00:54.407Z,72.85
2023-01-20T01:03:57.087Z,72.43
2023-01-20T01:06:59.730Z,72.74
2023-01-20T01:10:06.318Z,71.84
2023-01-20T01:13:08.260Z,71.87
2023-01-20T01:16:13.387Z,71.52
2023-01-20T01:19:18.677Z,72.20
2023-01-20T01:22:20.495Z,72.17
2023-01-20T01:25:23.266Z,71.82
2023-01-20T01:28:25.973Z,72.43
2023-01-20T01:31:28.018Z,72.14
2023-01-20T01:34:30.980Z,72.74
2023-01-20T01:37:32.327Z,71.97
2023-01-20T01:40:36.009Z,71.80
2023-01-20T01:43:38.683Z,72.65
2023-01-20T01:46:42.766Z,72.53
2023-01-20T01:49:44.513Z,72.32
2023-01-20T01:52:49.932Z,72.42
2023-01-20T01:55:55.868Z,72.34
2023-01-20T01:59:01.362Z,72.48
2023-01-20T02:02:03.536Z,71.64
2023-01-20T02:05:07.093Z,73.04
2023-01-20T02:08:10.019Z,72.55
2023-01-20T02:11:11.355Z,72.12
2023-01-20T02:14:12.687Z,72.55
2023-01-20T02:17:26.451Z,70.98
2023-01-20T02:20:50.466Z,71.76
2023-01-20T02:24:32.526Z,72.50
2023-01-20T02:28:00.377Z,72.43
2023-01-20T02:31:24.551Z,72.27
2023-01-20T02:34:32.449Z,71.80
2023-01-20T02:37:45.064Z,72.30
2023-01-20T02:40:55.376Z,72.46
2023-01-20T02:44:03.513Z,72.32
2023-01-20T02:47:13.368Z,72.25
2023-01-20T02:50:22.571Z,72.27
2023-01-20T02:53:29.695Z,71.91
2023-01-20T02:56:35.160Z,71.73
2023-01-20T02:59:42.824Z,71.94
2023-01-20T03:02:48.114Z,72.10
2023-01-20T03:05:56.528Z,72.43
2023-01-20T03:09:00.983Z,71.63
2023-01-20T03:12:12.767Z,71.33
2023-01-20T03:15:16.278Z,73.65
2023-01-20T03:18:19.066Z,73.54
2023-01-20T03:21:21.640Z,72.44
2023-01-20T03:24:25.170Z,72.21
2023-01-20T03:27:26.738Z,72.22
2023-01-20T03:30:29.406Z,72.28
2023-01-20T03:33:30.880Z,73.52
2023-01-20T03:36:35.173Z,72.85
2023-01-20T03:39:39.101Z,72.87
2023-01-20T03:42:48.221Z,72.82
2023-01-20T03:45:55.099Z,72.23
2023-01-20T03:49:07.467Z,72.84
2023-01-20T03:52:17.969Z,72.98
2023-01-20T03:55:24.976Z,72.81
2023-01-20T03:58:32.563Z,73.25
2023-01-20T04:01:36.846Z,72.53
2023-01-20T04:04:41.727Z,73.16
2023-01-20T04:07:46.586Z,73.77
2023-01-20T04:10:49.704Z,72.91
2023-01-20T04:13:52.425Z,72.35
2023-01-20T04:16:57.455Z,72.49
2023-01-20T04:20:04.755Z,72.36
2023-01-20T04:23:11.372Z,73.94
2023-01-20T04:26:12.863Z,73.34
2023-01-20T04:29:15.753Z,73.89
2023-01-20T04:32:17.328Z,73.55
2023-01-20T04:35:19.785Z,73.93
2023-01-20T04:38:21.786Z,73.16
2023-01-20T04:41:24.524Z,73.80
2023-01-20T04:44:26.331Z,73.26
2023-01-20T04:47:30.214Z,73.04
2023-01-20T04:50:31.910Z,72.90
2023-01-20T04:53:35.664Z,74.14
2023-01-20T04:56:38.418Z,73.28
2023-01-20T04:59:41.372Z,72.20
2023-01-20T05:02:42.936Z,73.61
2023-01-20T05:05:52.673Z,74.19
2023-01-20T05:08:54.898Z,74.39
2023-01-20T05:11:56.849Z,74.83
2023-01-20T05:14:58.229Z,74.15
2023-01-20T05:18:01.053Z,74.59
2023-01-20T05:21:03.885Z,74.57
2023-01-20T05:24:06.746Z,74.46
2023-01-20T05:27:08.413Z,73.59
2023-01-20T05:30:11.229Z,74.04
2023-01-20T05:33:12.567Z,73.94
2023-01-20T05:36:15.385Z,72.64
2023-01-20T05:39:17.407Z,73.41
2023-01-20T05:42:19.972Z,74.00
2023-01-20T05:45:21.230Z,75.12
2023-01-20T05:48:22.643Z,74.64
2023-01-20T05:51:25.202Z,73.61
2023-01-20T05:54:27.166Z,74.18
2023-01-20T05:57:28.568Z,73.22
2023-01-20T06:00:31.474Z,73.30
2023-01-20T06:03:32.928Z,74.13
2023-01-20T06:06:35.554Z,73.91
2023-01-20T06:09:37.509Z,72.90
2023-01-20T06:12:40.096Z,74.48
2023-01-20T06:15:41.389Z,73.64
2023-01-20T06:18:44.095Z,74.65
2023-01-20T06:21:47.177Z,74.28
2023-01-20T06:24:50.468Z,74.16
2023-01-20T06:27:51.877Z,73.78
2023-01-20T06:30:59.113Z,74.44
2023-01-20T06:40:43.435Z,74.02
2023-01-20T06:43:45.074Z,73.25
2023-01-20T06:46:48.299Z,74.49
2023-01-20T06:49:50.817Z,73.75
2023-01-20T06:52:54.685Z,74.82
2023-01-20T06:55:58.131Z,74.66
2023-01-20T06:58:59.479Z,73.46
2023-01-20T07:02:00.903Z,74.79
2023-01-20T07:05:03.881Z,75.03
2023-01-20T07:08:07.033Z,73.96
2023-01-20T07:11:09.297Z,74.42
2023-01-20T07:14:10.827Z,73.66
2023-01-20T07:17:12.565Z,74.58
2023-01-20T07:20:14.111Z,73.93
2023-01-20T07:23:16.824Z,75.65
2023-01-20T07:26:20.511Z,74.89
2023-01-20T07:29:40.925Z,74.65
2023-01-20T07:32:42.370Z,74.66
2023-01-20T07:35:45.454Z,74.87
2023-01-20T07:42:09.960Z,74.40
2023-01-20T07:45:11.476Z,72.79
2023-01-20T07:48:12.871Z,74.98
2023-01-20T07:51:15.665Z,74.10
2023-01-20T07:54:18.487Z,74.80
2023-01-20T07:57:20.809Z,74.08
2023-01-20T08:00:22.521Z,74.74
2023-01-20T08:03:27.428Z,74.99
2023-01-20T08:06:29.645Z,74.44
2023-01-20T08:09:32.139Z,73.90
2023-01-20T08:12:34.128Z,74.64
2023-01-20T08:15:35.464Z,73.91
2023-01-20T08:18:37.241Z,75.37
2023-01-20T08:21:39.792Z,74.82
2023-01-20T08:24:41.148Z,75.41
2023-01-20T08:27:44.350Z,74.30
2023-01-20T08:30:45.699Z,74.52
2023-01-20T08:33:49.456Z,74.31
2023-01-20T08:36:53.241Z,73.86
2023-01-20T08:43:17.216Z,73.80
2023-01-20T08:46:22.039Z,73.31
2023-01-20T08:52:44.580Z,73.07
2023-01-20T08:55:56.008Z,72.80
2023-01-20T08:58:58.980Z,72.43
2023-01-20T09:02:01.841Z,72.17
2023-01-20T09:08:26.233Z,72.31
2023-01-20T09:11:28.808Z,72.45
2023-01-20T09:14:32.152Z,71.87
2023-01-20T09:17:34.351Z,71.85
2023-01-20T09:20:37.775Z,71.47
2023-01-20T09:23:40.414Z,72.09
2023-01-20T09:26:42.976Z,72.03
2023-01-20T09:29:46.144Z,71.21
2023-01-20T09:32:49.075Z,71.63
2023-01-20T09:35:55.318Z,71.96
2023-01-20T09:39:14.658Z,72.08
2023-01-20T09:42:48.339Z,71.76
2023-01-20T09:45:57.568Z,71.61
2023-01-20T09:49:30.598Z,70.83
2023-01-20T09:52:54.909Z,71.94
2023-01-20T09:55:59.368Z,71.55
2023-01-20T09:59:08.075Z,71.54
2023-01-20T10:02:18.693Z,70.73
2023-01-20T10:05:23.338Z,71.31
2023-01-20T10:08:31.993Z,69.60
2023-01-20T10:11:39.109Z,70.49
2023-01-20T10:14:44.489Z,70.77
2023-01-20T10:17:52.378Z,70.67
2023-01-20T10:20:59.305Z,69.92
2023-01-20T10:24:08.399Z,71.20
2023-01-20T10:27:09.761Z,70.83
2023-01-20T10:30:14.820Z,70.41
2023-01-20T10:33:24.407Z,70.08
2023-01-20T10:36:29.019Z,70.40
2023-01-20T10:39:39.293Z,70.19
2023-01-20T10:42:41.050Z,68.29
2023-01-20T10:46:06.467Z,68.24
2023-01-20T10:49:36.741Z,68.70
2023-01-20T10:56:27.993Z,68.37
2023-01-20T10:59:34.060Z,68.31
2023-01-20T11:02:38.449Z,68.48
2023-01-20T11:05:42.899Z,67.99
2023-01-20T11:08:44.570Z,68.12
2023-01-20T11:11:48.120Z,68.39
2023-01-20T11:14:49.629Z,67.53
2023-01-20T11:18:28.315Z,67.58
2023-01-20T11:21:32.697Z,67.22
2023-01-20T11:24:42.408Z,67.41
2023-01-20T11:27:46.822Z,67.81
2023-01-20T11:30:52.818Z,66.87
2023-01-20T11:37:21.146Z,67.08
2023-01-20T11:40:24.477Z,67.08
2023-01-20T11:43:31.761Z,66.85
2023-01-20T11:46:35.671Z,67.72
2023-01-20T11:49:38.488Z,66.63
2023-01-20T11:52:42.849Z,66.72
2023-01-20T11:55:50.038Z,66.98
2023-01-20T11:58:56.548Z,66.03
2023-01-20T12:02:00.888Z,67.14
2023-01-20T12:05:10.962Z,66.29
2023-01-20T12:08:18.644Z,66.93
2023-01-20T12:11:28.474Z,66.96
2023-01-20T12:14:33.771Z,66.66
2023-01-20T12:17:51.078Z,66.27
2023-01-20T12:20:59.868Z,66.00
2023-01-20T12:24:10.005Z,65.62
2023-01-20T12:30:48.740Z,65.61
2023-01-20T12:33:56.759Z,64.93
2023-01-20T12:37:06.173Z,66.05
2023-01-20T12:40:20.483Z,67.12
2023-01-20T12:43:39.783Z,67.38
2023-01-20T12:46:45.538Z,66.88
2023-01-20T12:50:18.459Z,66.36
2023-01-20T12:53:32.068Z,66.47
2023-01-20T12:56:46.448Z,65.23
2023-01-20T13:00:11.727Z,65.42
2023-01-20T13:04:00.205Z,65.73
2023-01-20T13:07:16.852Z,66.13
2023-01-20T13:10:45.879Z,66.20
2023-01-20T13:14:03.482Z,65.78
2023-01-20T13:17:14.187Z,65.93
2023-01-20T13:20:23.695Z,65.39
2023-01-20T13:23:28.003Z,66.74
2023-01-20T13:26:30.952Z,65.87
2023-01-20T13:29:53.454Z,66.89
2023-01-20T13:33:03.473Z,65.67
2023-01-20T13:36:21.392Z,64.95
2023-01-20T13:39:40.026Z,65.93
2023-01-20T13:42:55.079Z,65.66
2023-01-20T13:46:29.701Z,66.70
2023-01-20T13:49:50.641Z,65.87
2023-01-20T13:53:25.999Z,66.35
2023-01-20T13:56:29.628Z,66.80
2023-01-20T13:59:32.273Z,65.81
2023-01-20T14:02:36.512Z,66.35
2023-01-20T14:05:40.970Z,65.61
2023-01-20T14:08:46.323Z,66.15
2023-01-20T14:11:52.648Z,65.89
2023-01-20T14:14:54.589Z,66.18
2023-01-20T14:17:58.472Z,66.29
2023-01-20T14:21:04.637Z,66.25
2023-01-20T14:24:07.469Z,66.54
2023-01-20T14:27:14.297Z,66.74
2023-01-20T14:30:20.496Z,66.17
2023-01-20T14:33:23.208Z,66.70
2023-01-20T14:36:30.315Z,66.47
2023-01-20T14:39:33.801Z,66.19
2023-01-20T14:42:39.081Z,66.68
2023-01-20T14:45:43.257Z,66.67
2023-01-20T14:48:45.811Z,66.02
2023-01-20T14:51:50.813Z,66.33
2023-01-20T14:54:55.699Z,66.84
2023-01-20T14:57:59.911Z,66.60
2023-01-20T15:01:03.920Z,66.77
2023-01-20T15:04:06.708Z,66.99
2023-01-20T15:07:17.986Z,66.90
2023-01-20T15:10:20.734Z,66.08
2023-01-20T15:13:25.308Z,67.07
2023-01-20T15:16:28.755Z,67.65
2023-01-20T15:19:33.534Z,68.28
2023-01-20T15:22:35.496Z,67.74
2023-01-20T15:25:37.203Z,67.31
2023-01-20T15:28:43.893Z,67.19
2023-01-20T15:31:45.310Z,67.63
2023-01-20T15:34:47.655Z,67.94
2023-01-20T15:37:50.327Z,68.13
2023-01-20T15:40:52.885Z,67.42
2023-01-20T15:43:55.453Z,67.51
2023-01-20T15:46:57.796Z,68.59
2023-01-20T15:50:00.409Z,68.55
2023-01-20T15:53:02.787Z,68.78
2023-01-20T15:56:05.570Z,68.51
2023-01-20T15:59:12.292Z,68.88
2023-01-20T16:02:17.903Z,68.73
2023-01-20T16:05:19.229Z,68.72
2023-01-20T16:08:23.118Z,67.78
2023-01-20T16:11:24.461Z,68.91
2023-01-20T16:17:45.554Z,68.87
2023-01-20T16:20:48.956Z,68.58
2023-01-20T16:23:50.991Z,69.27
2023-01-20T16:26:52.278Z,69.77
2023-01-20T16:29:55.175Z,69.45
2023-01-20T16:32:57.753Z,70.52
2023-01-20T16:36:00.452Z,70.05
2023-01-20T16:39:02.596Z,70.30
2023-01-20T16:42:04.082Z,69.89
2023-01-20T16:45:14.359Z,70.25
2023-01-20T16:48:15.783Z,70.34
2023-01-20T16:51:19.439Z,70.31
2023-01-20T16:54:22.706Z,69.96
2023-01-20T16:57:24.301Z,70.13
2023-01-20T17:00:25.832Z,70.52
2023-01-20T17:03:27.259Z,70.46
2023-01-20T17:06:30.232Z,69.96
2023-01-20T17:09:32.307Z,70.61
2023-01-20T17:12:34.886Z,69.47
2023-01-20T17:15:40.995Z,69.96
2023-01-20T17:18:44.784Z,69.27
2023-01-20T17:21:47.400Z,68.44
2023-01-20T17:24:49.383Z,67.87
2023-01-20T17:27:52.072Z,69.21
2023-01-20T17:30:54.460Z,69.62
2023-01-20T17:33:55.929Z,69.63
2023-01-20T17:36:57.332Z,69.22
2023-01-20T17:40:00.864Z,69.95
2023-01-20T17:43:03.478Z,68.87
2023-01-20T17:46:13.282Z,69.66
2023-01-20T17:49:14.763Z,70.38
2023-01-20T17:52:19.499Z,69.79
2023-01-20T17:55:22.700Z,69.22
2023-01-20T17:58:24.156Z,69.83
2023-01-20T18:01:28.754Z,69.71
2023-01-20T18:04:31.325Z,68.09
2023-01-20T18:07:32.685Z,69.07
2023-01-20T18:10:36.010Z,69.96
2023-01-20T18:13:39.470Z,70.29
2023-01-20T18:16:41.374Z,70.23
2023-01-20T18:19:43.062Z,70.67
2023-01-20T18:22:48.113Z,69.67
2023-01-20T18:25:53.426Z,69.73
2023-01-20T18:28:56.500Z,69.23
2023-01-20T18:32:01.915Z,69.31
2023-01-20T18:35:04.224Z,68.57
2023-01-20T18:38:07.263Z,69.81
2023-01-20T18:41:10.021Z,70.47
2023-01-20T18:44:13.027Z,69.96
2023-01-20T18:47:14.728Z,70.16
2023-01-20T18:50:18.001Z,70.64
2023-01-20T18:53:19.593Z,70.31
2023-01-20T18:56:23.396Z,70.29
2023-01-20T18:59:24.959Z,68.83
2023-01-20T19:05:47.584Z,69.91
2023-01-20T19:08:50.829Z,70.57
2023-01-20T19:11:52.834Z,69.75
2023-01-20T19:14:55.708Z,70.07
2023-01-20T19:17:57.094Z,70.34
2023-01-20T19:21:05.254Z,70.43
2023-01-20T19:24:07.259Z,70.54
2023-01-20T19:27:10.497Z,70.48
2023-01-20T19:30:12.635Z,70.62
2023-01-20T19:33:16.666Z,70.08
2023-01-20T19:36:19.315Z,68.39
2023-01-20T19:39:20.644Z,68.40
2023-01-20T19:42:24.873Z,69.40
2023-01-20T19:45:40.332Z,70.19
2023-01-20T19:48:46.364Z,71.00
2023-01-20T19:51:47.728Z,69.56
2023-01-20T19:54:51.660Z,70.81
2023-01-20T19:57:55.419Z,70.65
2023-01-20T20:01:05.523Z,69.55
2023-01-20T20:04:09.686Z,69.70
2023-01-20T20:07:12.847Z,69.60
2023-01-20T20:10:16.970Z,69.11
2023-01-20T20:13:19.326Z,69.88
2023-01-20T20:16:21.485Z,70.86
2023-01-20T20:19:24.100Z,70.15
2023-01-20T20:22:26.657Z,69.79
2023-01-20T20:25:28.004Z,70.10
2023-01-20T20:28:31.639Z,70.67
2023-01-20T20:31:36.159Z,69.78
2023-01-20T20:34:37.574Z,69.71
2023-01-20T20:37:39.992Z,69.23
2023-01-20T20:40:42.598Z,70.11
2023-01-20T20:43:45.912Z,69.75
2023-01-20T20:46:48.103Z,69.86
2023-01-20T20:49:50.891Z,70.47
2023-01-20T20:52:52.336Z,69.91
2023-01-20T20:59:23.975Z,70.34
2023-01-20T21:02:25.667Z,70.10
2023-01-20T21:05:27.051Z,71.74
2023-01-20T21:08:28.924Z,71.41
2023-01-20T21:11:30.446Z,71.08
2023-01-20T21:14:32.438Z,69.95
2023-01-20T21:17:33.745Z,69.04
2023-01-20T21:20:36.372Z,69.98
2023-01-20T21:23:39.830Z,69.87
2023-01-20T21:30:04.378Z,68.85
2023-01-20T21:33:05.796Z,70.11
2023-01-20T21:36:09.107Z,70.17
2023-01-20T21:39:11.797Z,69.83
2023-01-20T21:42:14.329Z,69.98
2023-01-20T21:45:17.658Z,69.96
2023-01-20T21:48:38.277Z,70.05
2023-01-20T21:51:59.412Z,70.33
2023-01-20T21:55:01.401Z,69.00
2023-01-20T21:58:03.971Z,69.52
2023-01-20T22:01:06.035Z,68.12
2023-01-20T22:04:08.724Z,69.21
2023-01-20T22:07:10.537Z,68.80
2023-01-20T22:10:13.669Z,69.05
2023-01-20T22:13:17.064Z,68.66
2023-01-20T22:16:19.341Z,67.96
2023-01-20T22:19:21.974Z,69.34
2023-01-20T22:22:23.294Z,69.84
2023-01-20T22:25:25.838Z,69.59
2023-01-20T22:28:30.219Z,69.08
2023-01-20T22:31:33.266Z,68.75
2023-01-20T22:34:35.802Z,69.49
2023-01-20T22:37:38.596Z,69.69
2023-01-20T22:40:39.928Z,69.87
2023-01-20T22:43:44.559Z,69.04
2023-01-20T22:46:46.542Z,69.43
2023-01-20T22:49:49.052Z,69.76
2023-01-20T22:52:50.390Z,69.75
2023-01-20T22:56:00.924Z,70.25
2023-01-20T22:59:02.606Z,70.22
2023-01-20T23:02:05.887Z,69.37
2023-01-20T23:05:07.858Z,68.53
2023-01-20T23:11:32.127Z,68.83
2023-01-20T23:14:52.683Z,68.73
2023-01-20T23:17:55.080Z,70.34
2023-01-20T23:20:58.035Z,69.67
2023-01-20T23:24:00.694Z,69.09
2023-01-20T23:27:02.012Z,70.11
2023-01-20T23:30:06.258Z,70.41
2023-01-20T23:33:09.325Z,70.27
2023-01-20T23:36:14.649Z,70.17
2023-01-20T23:39:17.251Z,70.73
2023-01-20T23:42:18.935Z,70.17
2023-01-20T23:45:21.584Z,70.31
2023-01-20T23:48:23.708Z,71.03
2023-01-20T23:51:26.353Z,70.57
2023-01-20T23:54:29.189Z,71.07
2023-01-20T23:57:30.515Z,71.02
